Updated11/12/2019 01:10 
 

GeoURL
free counters
Scottish Weather Network UK Weather Network Cumulus Top Weather Sites

Peebles Weather - Contact

Raw Data, Raw Data Expanded

Ignore low humidity and Dew Point values. Something wrong with the sensor.
Daytime temperatures are in direct sunlight so may be higher than official air temperature values.
As with any other website, we log your IP address and browser type in the server logs for diagnostic reasons. Cookies are used to record visit time and gauges preferences. No personal information is stored or processed.

All times are in local time (GMT, or BST in summer) unless specified.

2019/12/11 00:50 EGPH 110050Z 22011KT 9999 FEW017 BKN025 04/03 Q0994
3.4°C 0.6 mm 0.6 mm 23.7 mm 6.4 mph 10.7 mph 990.9 hPa 10% X-Ray Solar Flare Level
Planetary K-Index
Planetary K-Index History
Station Warn Rain Snow Flood Wind Ltng Heat Cold Glob Moon Temp Rain 1h Rain Wed Rain 24h Wind 10m Gust Pressure Hum Proton Levels

2.108 m Waxing Gibbous Cold F2-WNW F: A: Kp:0 SSN:0

Contact

Feel free to contact me using the contact form or by emailing: wx at askewonline dot co dot uk (address obfuscated for anti-spam reasons).

Comments or questions are welcome.

Contact Form
*(denotes required field)

Powered by Fast Secure Contact Form - PHP

 

XHTML 1.1 | CSS